sensor_id;sensor_type;location;lat;lon;timestamp;P1;durP1;ratioP1;P2;durP2;ratioP2
15624;SDS011;7912;51.376;6.126;2023-12-28T00:12:45;2.47;;;2.20;;
15624;SDS011;7912;51.376;6.126;2023-12-28T00:15:57;2.30;;;2.10;;
15624;SDS011;7912;51.376;6.126;2023-12-28T00:19:20;2.70;;;1.83;;
15624;SDS011;7912;51.376;6.126;2023-12-28T00:22:25;2.93;;;2.20;;
15624;SDS011;7912;51.376;6.126;2023-12-28T00:29:09;3.57;;;2.27;;
15624;SDS011;7912;51.376;6.126;2023-12-28T00:32:35;2.20;;;2.00;;
15624;SDS011;7912;51.376;6.126;2023-12-28T00:35:29;3.67;;;2.13;;
15624;SDS011;7912;51.376;6.126;2023-12-28T00:38:20;2.20;;;2.00;;
15624;SDS011;7912;51.376;6.126;2023-12-28T00:40:47;2.33;;;2.10;;
15624;SDS011;7912;51.376;6.126;2023-12-28T00:43:14;3.23;;;2.10;;
15624;SDS011;7912;51.376;6.126;2023-12-28T00:45:41;2.30;;;2.10;;
15624;SDS011;7912;51.376;6.126;2023-12-28T00:48:09;2.50;;;2.30;;
15624;SDS011;7912;51.376;6.126;2023-12-28T00:50:37;2.33;;;2.10;;
15624;SDS011;7912;51.376;6.126;2023-12-28T00:53:04;3.17;;;2.10;;
15624;SDS011;7912;51.376;6.126;2023-12-28T00:55:31;3.53;;;2.30;;
15624;SDS011;7912;51.376;6.126;2023-12-28T00:57:59;2.67;;;2.07;;
15624;SDS011;7912;51.376;6.126;2023-12-28T01:00:27;2.53;;;2.23;;
15624;SDS011;7912;51.376;6.126;2023-12-28T01:09:07;2.67;;;2.40;;
15624;SDS011;7912;51.376;6.126;2023-12-28T01:11:34;2.67;;;2.47;;
15624;SDS011;7912;51.376;6.126;2023-12-28T01:14:02;2.80;;;2.30;;
15624;SDS011;7912;51.376;6.126;2023-12-28T01:16:29;3.00;;;2.60;;
15624;SDS011;7912;51.376;6.126;2023-12-28T01:23:30;2.50;;;2.27;;
15624;SDS011;7912;51.376;6.126;2023-12-28T01:26:58;2.20;;;2.00;;
15624;SDS011;7912;51.376;6.126;2023-12-28T01:37:08;2.37;;;2.17;;
15624;SDS011;7912;51.376;6.126;2023-12-28T01:40:20;2.67;;;2.20;;
15624;SDS011;7912;51.376;6.126;2023-12-28T01:43:09;3.10;;;2.37;;
15624;SDS011;7912;51.376;6.126;2023-12-28T01:46:01;3.47;;;2.53;;
15624;SDS011;7912;51.376;6.126;2023-12-28T01:48:45;2.90;;;2.30;;
15624;SDS011;7912;51.376;6.126;2023-12-28T01:51:45;2.67;;;2.40;;
15624;SDS011;7912;51.376;6.126;2023-12-28T01:54:19;2.60;;;2.40;;
15624;SDS011;7912;51.376;6.126;2023-12-28T01:57:04;2.90;;;2.27;;
15624;SDS011;7912;51.376;6.126;2023-12-28T01:59:54;2.60;;;2.40;;
15624;SDS011;7912;51.376;6.126;2023-12-28T02:02:47;3.40;;;2.20;;
15624;SDS011;7912;51.376;6.126;2023-12-28T02:05:39;5.27;;;2.67;;
15624;SDS011;7912;51.376;6.126;2023-12-28T02:08:44;3.73;;;2.40;;
15624;SDS011;7912;51.376;6.126;2023-12-28T02:11:39;3.43;;;2.53;;
15624;SDS011;7912;51.376;6.126;2023-12-28T02:14:21;3.33;;;2.60;;
15624;SDS011;7912;51.376;6.126;2023-12-28T02:20:53;4.97;;;2.83;;
15624;SDS011;7912;51.376;6.126;2023-12-28T02:23:22;5.00;;;3.37;;
15624;SDS011;7912;51.376;6.126;2023-12-28T02:25:49;4.67;;;3.60;;
15624;SDS011;7912;51.376;6.126;2023-12-28T02:28:16;8.07;;;3.97;;
15624;SDS011;7912;51.376;6.126;2023-12-28T02:30:44;6.50;;;4.50;;
15624;SDS011;7912;51.376;6.126;2023-12-28T02:36:06;7.47;;;4.50;;
15624;SDS011;7912;51.376;6.126;2023-12-28T02:38:38;5.23;;;4.23;;
15624;SDS011;7912;51.376;6.126;2023-12-28T02:41:07;6.43;;;4.50;;
15624;SDS011;7912;51.376;6.126;2023-12-28T02:43:36;7.53;;;4.77;;
15624;SDS011;7912;51.376;6.126;2023-12-28T02:46:05;5.23;;;4.17;;
15624;SDS011;7912;51.376;6.126;2023-12-28T02:48:32;6.00;;;4.20;;
15624;SDS011;7912;51.376;6.126;2023-12-28T02:51:00;6.77;;;4.63;;
15624;SDS011;7912;51.376;6.126;2023-12-28T02:56:14;6.03;;;4.87;;
15624;SDS011;7912;51.376;6.126;2023-12-28T02:58:42;7.33;;;5.83;;
15624;SDS011;7912;51.376;6.126;2023-12-28T03:01:09;7.10;;;5.20;;
15624;SDS011;7912;51.376;6.126;2023-12-28T03:06:41;7.93;;;5.60;;
15624;SDS011;7912;51.376;6.126;2023-12-28T03:09:12;6.67;;;5.63;;
15624;SDS011;7912;51.376;6.126;2023-12-28T03:11:40;5.63;;;4.83;;
15624;SDS011;7912;51.376;6.126;2023-12-28T03:14:07;4.90;;;4.33;;
15624;SDS011;7912;51.376;6.126;2023-12-28T03:16:34;5.63;;;4.67;;
15624;SDS011;7912;51.376;6.126;2023-12-28T03:19:01;4.47;;;3.67;;
15624;SDS011;7912;51.376;6.126;2023-12-28T03:21:29;4.57;;;3.90;;
15624;SDS011;7912;51.376;6.126;2023-12-28T03:23:56;4.63;;;4.07;;
15624;SDS011;7912;51.376;6.126;2023-12-28T03:26:24;4.13;;;3.70;;
15624;SDS011;7912;51.376;6.126;2023-12-28T03:28:51;4.13;;;3.73;;
15624;SDS011;7912;51.376;6.126;2023-12-28T03:31:18;4.63;;;3.90;;
15624;SDS011;7912;51.376;6.126;2023-12-28T03:33:45;4.50;;;4.10;;
15624;SDS011;7912;51.376;6.126;2023-12-28T03:36:19;3.90;;;3.50;;
15624;SDS011;7912;51.376;6.126;2023-12-28T03:38:47;3.80;;;3.40;;
15624;SDS011;7912;51.376;6.126;2023-12-28T03:41:18;4.40;;;3.47;;
15624;SDS011;7912;51.376;6.126;2023-12-28T03:43:46;3.63;;;3.33;;
15624;SDS011;7912;51.376;6.126;2023-12-28T03:46:14;3.80;;;3.40;;
15624;SDS011;7912;51.376;6.126;2023-12-28T03:48:41;3.67;;;3.37;;
15624;SDS011;7912;51.376;6.126;2023-12-28T03:51:13;3.90;;;3.30;;
15624;SDS011;7912;51.376;6.126;2023-12-28T03:53:42;4.07;;;3.40;;
15624;SDS011;7912;51.376;6.126;2023-12-28T03:56:22;3.80;;;3.40;;
15624;SDS011;7912;51.376;6.126;2023-12-28T03:58:51;3.60;;;3.30;;
15624;SDS011;7912;51.376;6.126;2023-12-28T04:01:20;4.27;;;3.57;;
15624;SDS011;7912;51.376;6.126;2023-12-28T04:03:51;4.17;;;3.53;;
15624;SDS011;7912;51.376;6.126;2023-12-28T04:06:18;3.70;;;3.17;;
15624;SDS011;7912;51.376;6.126;2023-12-28T04:08:46;6.47;;;3.43;;
15624;SDS011;7912;51.376;6.126;2023-12-28T04:11:13;3.50;;;3.20;;
15624;SDS011;7912;51.376;6.126;2023-12-28T04:13:43;3.23;;;2.93;;
15624;SDS011;7912;51.376;6.126;2023-12-28T04:16:14;4.97;;;3.23;;
15624;SDS011;7912;51.376;6.126;2023-12-28T04:18:42;3.57;;;3.03;;
15624;SDS011;7912;51.376;6.126;2023-12-28T04:21:13;3.70;;;2.87;;
15624;SDS011;7912;51.376;6.126;2023-12-28T04:23:41;3.20;;;2.90;;
15624;SDS011;7912;51.376;6.126;2023-12-28T04:26:08;2.60;;;2.40;;
15624;SDS011;7912;51.376;6.126;2023-12-28T04:28:36;2.83;;;2.53;;
15624;SDS011;7912;51.376;6.126;2023-12-28T04:31:03;4.03;;;2.60;;
15624;SDS011;7912;51.376;6.126;2023-12-28T04:37:43;4.37;;;2.57;;
15624;SDS011;7912;51.376;6.126;2023-12-28T04:40:10;2.80;;;2.33;;
15624;SDS011;7912;51.376;6.126;2023-12-28T04:42:40;2.50;;;2.30;;
15624;SDS011;7912;51.376;6.126;2023-12-28T04:45:08;3.70;;;2.47;;
15624;SDS011;7912;51.376;6.126;2023-12-28T04:47:36;5.07;;;2.50;;
15624;SDS011;7912;51.376;6.126;2023-12-28T04:50:04;3.00;;;2.40;;
15624;SDS011;7912;51.376;6.126;2023-12-28T04:52:32;5.00;;;2.60;;
15624;SDS011;7912;51.376;6.126;2023-12-28T04:55:00;3.80;;;2.10;;
15624;SDS011;7912;51.376;6.126;2023-12-28T04:57:27;3.80;;;2.50;;
15624;SDS011;7912;51.376;6.126;2023-12-28T04:59:55;4.30;;;2.63;;
15624;SDS011;7912;51.376;6.126;2023-12-28T05:02:22;3.73;;;2.33;;
15624;SDS011;7912;51.376;6.126;2023-12-28T05:04:51;4.40;;;2.20;;
15624;SDS011;7912;51.376;6.126;2023-12-28T05:07:21;4.80;;;2.43;;
15624;SDS011;7912;51.376;6.126;2023-12-28T05:09:49;4.47;;;2.40;;
15624;SDS011;7912;51.376;6.126;2023-12-28T05:12:16;2.97;;;2.10;;
15624;SDS011;7912;51.376;6.126;2023-12-28T05:14:43;4.00;;;2.20;;
15624;SDS011;7912;51.376;6.126;2023-12-28T05:17:13;3.07;;;2.30;;
15624;SDS011;7912;51.376;6.126;2023-12-28T05:19:43;5.13;;;2.43;;
15624;SDS011;7912;51.376;6.126;2023-12-28T05:22:11;3.77;;;2.13;;
15624;SDS011;7912;51.376;6.126;2023-12-28T05:24:39;4.97;;;2.27;;
15624;SDS011;7912;51.376;6.126;2023-12-28T05:27:06;3.67;;;2.30;;
15624;SDS011;7912;51.376;6.126;2023-12-28T05:29:33;6.23;;;2.30;;
15624;SDS011;7912;51.376;6.126;2023-12-28T05:32:01;5.13;;;2.00;;
15624;SDS011;7912;51.376;6.126;2023-12-28T05:34:28;3.80;;;2.27;;
15624;SDS011;7912;51.376;6.126;2023-12-28T05:36:55;5.83;;;2.50;;
15624;SDS011;7912;51.376;6.126;2023-12-28T05:39:22;3.73;;;2.20;;
15624;SDS011;7912;51.376;6.126;2023-12-28T05:41:50;6.27;;;2.17;;
15624;SDS011;7912;51.376;6.126;2023-12-28T05:44:17;3.07;;;2.10;;
15624;SDS011;7912;51.376;6.126;2023-12-28T05:46:44;5.27;;;2.23;;
15624;SDS011;7912;51.376;6.126;2023-12-28T05:49:12;4.63;;;2.30;;
15624;SDS011;7912;51.376;6.126;2023-12-28T05:51:39;4.20;;;2.20;;
15624;SDS011;7912;51.376;6.126;2023-12-28T05:54:08;3.83;;;2.13;;
15624;SDS011;7912;51.376;6.126;2023-12-28T05:56:35;4.60;;;2.00;;
15624;SDS011;7912;51.376;6.126;2023-12-28T05:59:03;6.10;;;2.30;;
15624;SDS011;7912;51.376;6.126;2023-12-28T06:01:30;4.27;;;2.23;;
15624;SDS011;7912;51.376;6.126;2023-12-28T06:03:57;4.23;;;2.10;;
15624;SDS011;7912;51.376;6.126;2023-12-28T06:06:25;6.20;;;2.20;;
15624;SDS011;7912;51.376;6.126;2023-12-28T06:08:52;6.93;;;2.23;;
15624;SDS011;7912;51.376;6.126;2023-12-28T06:11:20;4.20;;;2.20;;
15624;SDS011;7912;51.376;6.126;2023-12-28T06:13:47;4.47;;;2.03;;
15624;SDS011;7912;51.376;6.126;2023-12-28T06:16:17;4.27;;;2.00;;
15624;SDS011;7912;51.376;6.126;2023-12-28T06:18:44;4.20;;;2.20;;
15624;SDS011;7912;51.376;6.126;2023-12-28T06:21:12;4.20;;;2.20;;
15624;SDS011;7912;51.376;6.126;2023-12-28T06:23:39;6.67;;;2.30;;
15624;SDS011;7912;51.376;6.126;2023-12-28T06:26:07;3.77;;;2.07;;
15624;SDS011;7912;51.376;6.126;2023-12-28T06:28:34;4.80;;;2.33;;
15624;SDS011;7912;51.376;6.126;2023-12-28T06:31:04;3.80;;;2.10;;
15624;SDS011;7912;51.376;6.126;2023-12-28T06:33:32;5.13;;;2.40;;
15624;SDS011;7912;51.376;6.126;2023-12-28T06:36:04;5.70;;;2.23;;
15624;SDS011;7912;51.376;6.126;2023-12-28T06:38:34;6.10;;;2.10;;
15624;SDS011;7912;51.376;6.126;2023-12-28T06:41:09;6.57;;;2.40;;
15624;SDS011;7912;51.376;6.126;2023-12-28T06:43:38;6.73;;;2.20;;
15624;SDS011;7912;51.376;6.126;2023-12-28T06:46:08;4.70;;;2.60;;
15624;SDS011;7912;51.376;6.126;2023-12-28T06:48:35;7.47;;;2.60;;
15624;SDS011;7912;51.376;6.126;2023-12-28T06:51:07;7.70;;;2.40;;
15624;SDS011;7912;51.376;6.126;2023-12-28T06:53:35;4.63;;;2.20;;
15624;SDS011;7912;51.376;6.126;2023-12-28T06:56:02;5.40;;;2.33;;
15624;SDS011;7912;51.376;6.126;2023-12-28T06:58:32;6.93;;;2.50;;
15624;SDS011;7912;51.376;6.126;2023-12-28T07:00:59;5.27;;;2.27;;
15624;SDS011;7912;51.376;6.126;2023-12-28T07:03:30;7.27;;;2.20;;
15624;SDS011;7912;51.376;6.126;2023-12-28T07:05:59;4.47;;;2.40;;
15624;SDS011;7912;51.376;6.126;2023-12-28T07:08:27;4.33;;;2.23;;
15624;SDS011;7912;51.376;6.126;2023-12-28T07:10:54;5.00;;;2.40;;
15624;SDS011;7912;51.376;6.126;2023-12-28T07:13:21;5.37;;;2.20;;
15624;SDS011;7912;51.376;6.126;2023-12-28T07:15:49;7.70;;;2.20;;
15624;SDS011;7912;51.376;6.126;2023-12-28T07:18:16;8.40;;;2.73;;
15624;SDS011;7912;51.376;6.126;2023-12-28T07:20:44;4.80;;;2.13;;
15624;SDS011;7912;51.376;6.126;2023-12-28T07:23:11;6.73;;;2.40;;
15624;SDS011;7912;51.376;6.126;2023-12-28T07:25:39;5.90;;;2.40;;
15624;SDS011;7912;51.376;6.126;2023-12-28T07:28:07;5.10;;;2.23;;
15624;SDS011;7912;51.376;6.126;2023-12-28T07:30:34;7.57;;;2.77;;
15624;SDS011;7912;51.376;6.126;2023-12-28T07:33:03;5.40;;;2.20;;
15624;SDS011;7912;51.376;6.126;2023-12-28T07:35:31;7.10;;;2.57;;
15624;SDS011;7912;51.376;6.126;2023-12-28T07:37:58;6.90;;;2.13;;
15624;SDS011;7912;51.376;6.126;2023-12-28T07:40:26;6.60;;;2.50;;
15624;SDS011;7912;51.376;6.126;2023-12-28T07:42:53;4.40;;;1.80;;
15624;SDS011;7912;51.376;6.126;2023-12-28T07:45:21;6.47;;;2.23;;
15624;SDS011;7912;51.376;6.126;2023-12-28T07:47:53;6.57;;;2.40;;
15624;SDS011;7912;51.376;6.126;2023-12-28T07:50:21;5.73;;;2.30;;
15624;SDS011;7912;51.376;6.126;2023-12-28T07:52:48;7.17;;;2.40;;
15624;SDS011;7912;51.376;6.126;2023-12-28T07:55:16;5.63;;;2.40;;
15624;SDS011;7912;51.376;6.126;2023-12-28T07:57:43;7.13;;;2.20;;
15624;SDS011;7912;51.376;6.126;2023-12-28T08:00:11;7.13;;;2.13;;
15624;SDS011;7912;51.376;6.126;2023-12-28T08:02:41;4.77;;;2.40;;
15624;SDS011;7912;51.376;6.126;2023-12-28T08:07:57;7.10;;;2.67;;
15624;SDS011;7912;51.376;6.126;2023-12-28T08:10:28;6.67;;;2.40;;
15624;SDS011;7912;51.376;6.126;2023-12-28T08:12:56;6.47;;;2.50;;
15624;SDS011;7912;51.376;6.126;2023-12-28T08:15:23;7.63;;;2.70;;
15624;SDS011;7912;51.376;6.126;2023-12-28T08:17:53;6.00;;;2.30;;
15624;SDS011;7912;51.376;6.126;2023-12-28T08:20:21;6.40;;;2.50;;
15624;SDS011;7912;51.376;6.126;2023-12-28T08:22:49;7.23;;;2.53;;
15624;SDS011;7912;51.376;6.126;2023-12-28T08:25:35;8.07;;;2.50;;
15624;SDS011;7912;51.376;6.126;2023-12-28T08:32:13;8.80;;;2.47;;
15624;SDS011;7912;51.376;6.126;2023-12-28T08:34:42;6.03;;;2.23;;
15624;SDS011;7912;51.376;6.126;2023-12-28T08:37:10;7.60;;;2.43;;
15624;SDS011;7912;51.376;6.126;2023-12-28T08:39:39;9.53;;;2.60;;
15624;SDS011;7912;51.376;6.126;2023-12-28T08:46:16;9.20;;;2.63;;
15624;SDS011;7912;51.376;6.126;2023-12-28T08:48:44;6.80;;;2.70;;
15624;SDS011;7912;51.376;6.126;2023-12-28T08:51:12;6.37;;;2.50;;
15624;SDS011;7912;51.376;6.126;2023-12-28T08:53:41;8.83;;;2.47;;
15624;SDS011;7912;51.376;6.126;2023-12-28T08:58:47;8.30;;;2.70;;
15624;SDS011;7912;51.376;6.126;2023-12-28T09:01:23;10.03;;;2.53;;
15624;SDS011;7912;51.376;6.126;2023-12-28T09:03:58;6.30;;;2.23;;
15624;SDS011;7912;51.376;6.126;2023-12-28T09:06:26;6.10;;;2.57;;
15624;SDS011;7912;51.376;6.126;2023-12-28T09:17:13;8.43;;;2.30;;
15624;SDS011;7912;51.376;6.126;2023-12-28T09:19:41;6.73;;;2.53;;
15624;SDS011;7912;51.376;6.126;2023-12-28T09:22:09;7.60;;;2.50;;
15624;SDS011;7912;51.376;6.126;2023-12-28T09:27:22;7.77;;;2.40;;
15624;SDS011;7912;51.376;6.126;2023-12-28T09:29:49;5.23;;;2.30;;
15624;SDS011;7912;51.376;6.126;2023-12-28T09:32:16;8.03;;;2.40;;
15624;SDS011;7912;51.376;6.126;2023-12-28T09:34:44;6.77;;;2.70;;
15624;SDS011;7912;51.376;6.126;2023-12-28T09:40:36;7.90;;;2.70;;
15624;SDS011;7912;51.376;6.126;2023-12-28T09:45:34;7.13;;;2.50;;
15624;SDS011;7912;51.376;6.126;2023-12-28T09:48:02;9.83;;;2.87;;
15624;SDS011;7912;51.376;6.126;2023-12-28T09:50:31;7.53;;;2.77;;
15624;SDS011;7912;51.376;6.126;2023-12-28T09:52:59;7.47;;;2.30;;
15624;SDS011;7912;51.376;6.126;2023-12-28T09:55:26;6.20;;;2.13;;
15624;SDS011;7912;51.376;6.126;2023-12-28T09:57:54;6.80;;;2.77;;
15624;SDS011;7912;51.376;6.126;2023-12-28T10:00:26;7.30;;;2.67;;
15624;SDS011;7912;51.376;6.126;2023-12-28T10:02:54;10.63;;;2.70;;
15624;SDS011;7912;51.376;6.126;2023-12-28T10:05:21;9.10;;;2.40;;
15624;SDS011;7912;51.376;6.126;2023-12-28T10:07:49;8.67;;;2.20;;
15624;SDS011;7912;51.376;6.126;2023-12-28T10:10:20;6.77;;;2.23;;
15624;SDS011;7912;51.376;6.126;2023-12-28T10:12:48;9.07;;;2.77;;
15624;SDS011;7912;51.376;6.126;2023-12-28T10:15:16;5.90;;;1.97;;
15624;SDS011;7912;51.376;6.126;2023-12-28T10:17:43;6.87;;;2.60;;
15624;SDS011;7912;51.376;6.126;2023-12-28T10:20:13;9.33;;;2.87;;
15624;SDS011;7912;51.376;6.126;2023-12-28T10:22:41;8.10;;;2.47;;
15624;SDS011;7912;51.376;6.126;2023-12-28T10:25:08;6.70;;;2.40;;
15624;SDS011;7912;51.376;6.126;2023-12-28T10:27:39;10.30;;;2.90;;
15624;SDS011;7912;51.376;6.126;2023-12-28T10:30:09;8.73;;;2.90;;
15624;SDS011;7912;51.376;6.126;2023-12-28T10:32:41;6.23;;;2.27;;
15624;SDS011;7912;51.376;6.126;2023-12-28T10:35:08;8.13;;;2.87;;
15624;SDS011;7912;51.376;6.126;2023-12-28T10:37:37;7.50;;;2.40;;
15624;SDS011;7912;51.376;6.126;2023-12-28T10:40:14;8.13;;;2.80;;
15624;SDS011;7912;51.376;6.126;2023-12-28T10:42:51;6.60;;;2.40;;
15624;SDS011;7912;51.376;6.126;2023-12-28T10:45:28;7.63;;;2.53;;
15624;SDS011;7912;51.376;6.126;2023-12-28T10:48:04;7.33;;;2.50;;
15624;SDS011;7912;51.376;6.126;2023-12-28T10:50:38;5.80;;;2.50;;
15624;SDS011;7912;51.376;6.126;2023-12-28T10:59:20;7.73;;;2.47;;
15624;SDS011;7912;51.376;6.126;2023-12-28T11:01:58;7.23;;;2.30;;
15624;SDS011;7912;51.376;6.126;2023-12-28T11:04:44;6.97;;;2.50;;
15624;SDS011;7912;51.376;6.126;2023-12-28T11:07:17;6.53;;;2.43;;
15624;SDS011;7912;51.376;6.126;2023-12-28T11:09:47;9.00;;;2.67;;
15624;SDS011;7912;51.376;6.126;2023-12-28T11:12:16;6.20;;;2.30;;
15624;SDS011;7912;51.376;6.126;2023-12-28T11:14:45;6.97;;;2.50;;
15624;SDS011;7912;51.376;6.126;2023-12-28T11:17:15;7.97;;;2.50;;
15624;SDS011;7912;51.376;6.126;2023-12-28T11:19:43;11.03;;;2.33;;
15624;SDS011;7912;51.376;6.126;2023-12-28T11:22:11;8.03;;;2.83;;
15624;SDS011;7912;51.376;6.126;2023-12-28T11:24:40;11.63;;;2.70;;
15624;SDS011;7912;51.376;6.126;2023-12-28T11:27:07;6.27;;;2.47;;
15624;SDS011;7912;51.376;6.126;2023-12-28T11:29:36;8.00;;;2.30;;
15624;SDS011;7912;51.376;6.126;2023-12-28T11:32:04;6.80;;;2.90;;
15624;SDS011;7912;51.376;6.126;2023-12-28T11:34:32;5.73;;;2.43;;
15624;SDS011;7912;51.376;6.126;2023-12-28T11:37:03;6.87;;;2.33;;
15624;SDS011;7912;51.376;6.126;2023-12-28T11:39:41;8.00;;;2.50;;
15624;SDS011;7912;51.376;6.126;2023-12-28T11:42:11;5.27;;;2.30;;
15624;SDS011;7912;51.376;6.126;2023-12-28T11:44:42;10.37;;;2.80;;
15624;SDS011;7912;51.376;6.126;2023-12-28T11:47:14;6.97;;;2.57;;
15624;SDS011;7912;51.376;6.126;2023-12-28T11:49:48;6.23;;;2.43;;
15624;SDS011;7912;51.376;6.126;2023-12-28T11:52:25;8.03;;;2.73;;
15624;SDS011;7912;51.376;6.126;2023-12-28T11:54:59;6.87;;;2.70;;
15624;SDS011;7912;51.376;6.126;2023-12-28T11:57:27;9.23;;;2.73;;
15624;SDS011;7912;51.376;6.126;2023-12-28T11:59:55;9.10;;;2.37;;
15624;SDS011;7912;51.376;6.126;2023-12-28T12:02:28;9.23;;;2.57;;
15624;SDS011;7912;51.376;6.126;2023-12-28T12:04:56;8.63;;;2.90;;
15624;SDS011;7912;51.376;6.126;2023-12-28T12:07:24;6.20;;;2.60;;
15624;SDS011;7912;51.376;6.126;2023-12-28T12:09:56;6.30;;;2.57;;
15624;SDS011;7912;51.376;6.126;2023-12-28T12:12:26;9.80;;;2.43;;
15624;SDS011;7912;51.376;6.126;2023-12-28T12:14:55;9.37;;;2.83;;
15624;SDS011;7912;51.376;6.126;2023-12-28T12:17:23;8.10;;;2.40;;
15624;SDS011;7912;51.376;6.126;2023-12-28T12:19:52;7.83;;;2.50;;
15624;SDS011;7912;51.376;6.126;2023-12-28T12:22:22;10.17;;;2.73;;
15624;SDS011;7912;51.376;6.126;2023-12-28T12:24:54;8.50;;;2.53;;
15624;SDS011;7912;51.376;6.126;2023-12-28T12:27:26;6.50;;;2.77;;
15624;SDS011;7912;51.376;6.126;2023-12-28T12:29:54;7.03;;;2.67;;
15624;SDS011;7912;51.376;6.126;2023-12-28T12:32:21;8.47;;;2.70;;
15624;SDS011;7912;51.376;6.126;2023-12-28T12:34:49;8.33;;;2.50;;
15624;SDS011;7912;51.376;6.126;2023-12-28T12:37:18;12.13;;;3.00;;
15624;SDS011;7912;51.376;6.126;2023-12-28T12:39:45;8.20;;;2.83;;
15624;SDS011;7912;51.376;6.126;2023-12-28T12:42:13;8.97;;;2.70;;
15624;SDS011;7912;51.376;6.126;2023-12-28T12:44:40;10.50;;;2.83;;
15624;SDS011;7912;51.376;6.126;2023-12-28T12:47:08;6.73;;;2.53;;
15624;SDS011;7912;51.376;6.126;2023-12-28T12:49:35;9.60;;;2.60;;
15624;SDS011;7912;51.376;6.126;2023-12-28T12:52:03;7.27;;;2.53;;
15624;SDS011;7912;51.376;6.126;2023-12-28T12:54:34;9.53;;;2.50;;
15624;SDS011;7912;51.376;6.126;2023-12-28T12:57:01;5.73;;;2.40;;
15624;SDS011;7912;51.376;6.126;2023-12-28T12:59:29;8.90;;;2.47;;
15624;SDS011;7912;51.376;6.126;2023-12-28T13:01:57;10.43;;;2.70;;
15624;SDS011;7912;51.376;6.126;2023-12-28T13:04:26;7.40;;;2.50;;
15624;SDS011;7912;51.376;6.126;2023-12-28T13:06:54;7.50;;;2.53;;
15624;SDS011;7912;51.376;6.126;2023-12-28T13:09:21;7.80;;;2.83;;
15624;SDS011;7912;51.376;6.126;2023-12-28T13:11:48;7.33;;;2.47;;
15624;SDS011;7912;51.376;6.126;2023-12-28T13:14:16;6.93;;;2.87;;
15624;SDS011;7912;51.376;6.126;2023-12-28T13:16:44;6.37;;;2.63;;
15624;SDS011;7912;51.376;6.126;2023-12-28T13:19:11;9.60;;;2.70;;
15624;SDS011;7912;51.376;6.126;2023-12-28T13:21:38;8.10;;;2.40;;
15624;SDS011;7912;51.376;6.126;2023-12-28T13:24:06;8.53;;;2.87;;
15624;SDS011;7912;51.376;6.126;2023-12-28T13:29:19;9.60;;;2.90;;
15624;SDS011;7912;51.376;6.126;2023-12-28T13:31:46;6.17;;;2.43;;
15624;SDS011;7912;51.376;6.126;2023-12-28T13:34:17;7.03;;;2.63;;
15624;SDS011;7912;51.376;6.126;2023-12-28T13:36:45;5.93;;;2.77;;
15624;SDS011;7912;51.376;6.126;2023-12-28T13:39:13;7.93;;;2.80;;
15624;SDS011;7912;51.376;6.126;2023-12-28T13:41:41;6.33;;;2.43;;
15624;SDS011;7912;51.376;6.126;2023-12-28T13:44:08;8.83;;;3.10;;
15624;SDS011;7912;51.376;6.126;2023-12-28T13:46:39;7.67;;;2.53;;
15624;SDS011;7912;51.376;6.126;2023-12-28T13:49:06;7.13;;;3.07;;
15624;SDS011;7912;51.376;6.126;2023-12-28T13:51:34;8.87;;;2.67;;
15624;SDS011;7912;51.376;6.126;2023-12-28T13:54:02;9.67;;;3.17;;
15624;SDS011;7912;51.376;6.126;2023-12-28T13:56:31;7.93;;;2.47;;
15624;SDS011;7912;51.376;6.126;2023-12-28T13:59:00;6.57;;;2.50;;
15624;SDS011;7912;51.376;6.126;2023-12-28T14:01:27;7.83;;;2.63;;
15624;SDS011;7912;51.376;6.126;2023-12-28T14:03:55;7.77;;;2.80;;
15624;SDS011;7912;51.376;6.126;2023-12-28T14:06:23;8.87;;;2.40;;
15624;SDS011;7912;51.376;6.126;2023-12-28T14:08:50;9.30;;;2.93;;
15624;SDS011;7912;51.376;6.126;2023-12-28T14:11:18;10.47;;;3.33;;
15624;SDS011;7912;51.376;6.126;2023-12-28T14:13:45;7.53;;;2.80;;
15624;SDS011;7912;51.376;6.126;2023-12-28T14:16:12;7.03;;;2.47;;
15624;SDS011;7912;51.376;6.126;2023-12-28T14:18:39;9.03;;;2.90;;
15624;SDS011;7912;51.376;6.126;2023-12-28T14:21:08;9.57;;;3.10;;
15624;SDS011;7912;51.376;6.126;2023-12-28T14:23:36;6.57;;;2.70;;
15624;SDS011;7912;51.376;6.126;2023-12-28T14:26:11;7.20;;;2.60;;
15624;SDS011;7912;51.376;6.126;2023-12-28T14:28:43;6.77;;;2.60;;
15624;SDS011;7912;51.376;6.126;2023-12-28T14:31:12;6.57;;;2.33;;
15624;SDS011;7912;51.376;6.126;2023-12-28T14:33:40;6.80;;;2.70;;
15624;SDS011;7912;51.376;6.126;2023-12-28T14:36:11;7.50;;;2.60;;
15624;SDS011;7912;51.376;6.126;2023-12-28T14:38:48;9.70;;;2.70;;
15624;SDS011;7912;51.376;6.126;2023-12-28T14:41:15;9.43;;;2.60;;
15624;SDS011;7912;51.376;6.126;2023-12-28T14:43:42;6.30;;;2.17;;
15624;SDS011;7912;51.376;6.126;2023-12-28T14:46:10;8.13;;;2.60;;
15624;SDS011;7912;51.376;6.126;2023-12-28T14:48:37;6.03;;;2.40;;
15624;SDS011;7912;51.376;6.126;2023-12-28T14:51:05;6.17;;;2.13;;
15624;SDS011;7912;51.376;6.126;2023-12-28T14:53:32;6.27;;;2.90;;
15624;SDS011;7912;51.376;6.126;2023-12-28T14:55:59;7.47;;;3.20;;
15624;SDS011;7912;51.376;6.126;2023-12-28T14:58:26;5.67;;;2.50;;
15624;SDS011;7912;51.376;6.126;2023-12-28T15:00:54;9.50;;;2.60;;
15624;SDS011;7912;51.376;6.126;2023-12-28T15:03:21;6.67;;;2.33;;
15624;SDS011;7912;51.376;6.126;2023-12-28T15:05:50;3.67;;;1.90;;
15624;SDS011;7912;51.376;6.126;2023-12-28T15:08:18;4.93;;;2.10;;
15624;SDS011;7912;51.376;6.126;2023-12-28T15:10:45;7.30;;;2.23;;
15624;SDS011;7912;51.376;6.126;2023-12-28T15:13:15;7.03;;;2.53;;
15624;SDS011;7912;51.376;6.126;2023-12-28T15:15:43;8.77;;;3.97;;
15624;SDS011;7912;51.376;6.126;2023-12-28T15:18:11;5.77;;;2.63;;
15624;SDS011;7912;51.376;6.126;2023-12-28T15:20:39;9.00;;;2.60;;
15624;SDS011;7912;51.376;6.126;2023-12-28T15:23:07;7.90;;;2.40;;
15624;SDS011;7912;51.376;6.126;2023-12-28T15:25:35;9.33;;;2.23;;
15624;SDS011;7912;51.376;6.126;2023-12-28T15:28:04;6.87;;;2.40;;
15624;SDS011;7912;51.376;6.126;2023-12-28T15:30:32;4.87;;;2.27;;
15624;SDS011;7912;51.376;6.126;2023-12-28T15:32:59;7.33;;;2.33;;
15624;SDS011;7912;51.376;6.126;2023-12-28T15:35:27;4.67;;;2.17;;
15624;SDS011;7912;51.376;6.126;2023-12-28T15:37:55;5.60;;;2.33;;
15624;SDS011;7912;51.376;6.126;2023-12-28T15:40:23;6.83;;;2.30;;
15624;SDS011;7912;51.376;6.126;2023-12-28T15:42:50;9.10;;;2.60;;
15624;SDS011;7912;51.376;6.126;2023-12-28T15:45:21;6.57;;;2.33;;
15624;SDS011;7912;51.376;6.126;2023-12-28T15:47:48;8.37;;;2.73;;
15624;SDS011;7912;51.376;6.126;2023-12-28T15:50:16;5.17;;;1.97;;
15624;SDS011;7912;51.376;6.126;2023-12-28T15:52:46;7.03;;;2.53;;
15624;SDS011;7912;51.376;6.126;2023-12-28T15:55:13;7.43;;;2.70;;
15624;SDS011;7912;51.376;6.126;2023-12-28T15:57:41;9.83;;;2.53;;
15624;SDS011;7912;51.376;6.126;2023-12-28T16:00:09;6.70;;;2.30;;
15624;SDS011;7912;51.376;6.126;2023-12-28T16:02:38;5.83;;;2.20;;
15624;SDS011;7912;51.376;6.126;2023-12-28T16:05:06;10.17;;;2.60;;
15624;SDS011;7912;51.376;6.126;2023-12-28T16:07:36;6.87;;;2.17;;
15624;SDS011;7912;51.376;6.126;2023-12-28T16:10:04;6.77;;;2.20;;
15624;SDS011;7912;51.376;6.126;2023-12-28T16:12:33;5.77;;;2.40;;
15624;SDS011;7912;51.376;6.126;2023-12-28T16:15:00;7.40;;;2.80;;
15624;SDS011;7912;51.376;6.126;2023-12-28T16:17:28;6.63;;;2.60;;
15624;SDS011;7912;51.376;6.126;2023-12-28T16:19:59;7.50;;;2.73;;
15624;SDS011;7912;51.376;6.126;2023-12-28T16:22:26;7.37;;;2.27;;
15624;SDS011;7912;51.376;6.126;2023-12-28T16:24:54;5.07;;;2.17;;
15624;SDS011;7912;51.376;6.126;2023-12-28T16:27:27;6.90;;;2.60;;
15624;SDS011;7912;51.376;6.126;2023-12-28T16:29:54;4.73;;;2.23;;
15624;SDS011;7912;51.376;6.126;2023-12-28T16:32:21;6.07;;;2.30;;
15624;SDS011;7912;51.376;6.126;2023-12-28T16:34:49;4.43;;;2.20;;
15624;SDS011;7912;51.376;6.126;2023-12-28T16:37:16;6.90;;;2.10;;
15624;SDS011;7912;51.376;6.126;2023-12-28T16:39:44;7.43;;;2.37;;
15624;SDS011;7912;51.376;6.126;2023-12-28T16:42:11;6.77;;;2.27;;
15624;SDS011;7912;51.376;6.126;2023-12-28T16:44:40;4.63;;;2.13;;
15624;SDS011;7912;51.376;6.126;2023-12-28T16:47:09;5.53;;;2.13;;
15624;SDS011;7912;51.376;6.126;2023-12-28T16:49:38;4.27;;;2.10;;